createdAt,value
2022-10-05T00:05:42.525Z,11.00
2022-10-05T00:15:49.641Z,10.50
2022-10-05T00:25:55.717Z,10.90
2022-10-05T00:36:01.782Z,10.80
2022-10-05T00:46:12.295Z,10.80
2022-10-05T00:56:21.136Z,11.00
2022-10-05T01:06:30.158Z,11.10
2022-10-05T01:16:46.858Z,10.20
2022-10-05T01:27:08.560Z,10.50
2022-10-05T01:37:28.047Z,10.20
2022-10-05T01:47:44.952Z,10.90
2022-10-05T01:58:13.976Z,9.80
2022-10-05T02:08:20.009Z,10.80
2022-10-05T02:18:29.551Z,11.30
2022-10-05T02:28:47.574Z,11.40
2022-10-05T02:38:56.802Z,11.70
2022-10-05T02:49:11.655Z,12.10
2022-10-05T02:59:23.061Z,10.80
2022-10-05T03:09:32.817Z,11.00
2022-10-05T03:19:38.809Z,9.60
2022-10-05T03:29:51.857Z,8.80
2022-10-05T03:40:15.595Z,9.30
2022-10-05T03:50:41.762Z,14.00
2022-10-05T04:00:49.498Z,16.40
2022-10-05T04:10:57.350Z,16.90
2022-10-05T04:21:26.821Z,12.90
2022-10-05T04:31:49.894Z,14.70
2022-10-05T04:42:14.556Z,14.60
2022-10-05T04:52:35.710Z,13.80
2022-10-05T05:03:04.792Z,16.80
2022-10-05T05:13:20.181Z,16.90
2022-10-05T05:23:29.192Z,15.50
2022-10-05T05:33:44.603Z,18.20
2022-10-05T05:44:03.699Z,18.40
2022-10-05T05:54:26.276Z,20.60
2022-10-05T06:04:52.576Z,23.00
2022-10-05T06:15:04.572Z,21.40
2022-10-05T06:25:13.657Z,12.00
2022-10-05T06:35:38.494Z,10.90
2022-10-05T06:45:57.852Z,11.10
2022-10-05T06:56:13.394Z,10.70
2022-10-05T07:06:25.474Z,10.30
2022-10-05T07:16:31.619Z,10.10
2022-10-05T07:26:47.978Z,9.20
2022-10-05T07:37:12.987Z,8.40
2022-10-05T07:47:36.601Z,7.00
2022-10-05T07:57:48.821Z,5.90
2022-10-05T08:07:57.959Z,6.60
2022-10-05T08:18:12.348Z,6.40
2022-10-05T08:28:24.523Z,6.00
2022-10-05T08:38:32.835Z,6.90
2022-10-05T08:48:57.681Z,6.10
2022-10-05T08:59:03.764Z,6.40
2022-10-05T09:09:19.562Z,6.50
2022-10-05T09:19:44.543Z,6.10
2022-10-05T09:30:11.958Z,6.20
2022-10-05T09:40:18.122Z,7.00
2022-10-05T09:50:39.478Z,6.60
2022-10-05T10:00:59.478Z,6.90
2022-10-05T10:11:22.435Z,6.75
2022-10-05T10:21:47.627Z,6.20
2022-10-05T10:32:13.104Z,6.20
2022-10-05T10:42:38.627Z,7.50
2022-10-05T10:53:04.986Z,6.50
2022-10-05T11:03:35.266Z,7.50
2022-10-05T11:13:44.097Z,6.50
2022-10-05T11:24:08.719Z,5.70
2022-10-05T11:34:50.744Z,6.00
2022-10-05T11:45:09.801Z,4.90
2022-10-05T11:55:16.103Z,5.40
2022-10-05T12:05:42.431Z,5.70
2022-10-05T12:15:55.510Z,5.50
2022-10-05T12:26:07.621Z,5.20
2022-10-05T12:36:16.456Z,5.50
2022-10-05T12:46:25.413Z,5.00
2022-10-05T12:56:50.212Z,5.10
2022-10-05T13:07:08.670Z,5.30
2022-10-05T13:17:14.788Z,5.40
2022-10-05T13:27:41.207Z,5.10
2022-10-05T13:38:05.934Z,5.60
2022-10-05T13:48:22.887Z,5.90
2022-10-05T13:58:36.301Z,5.80
2022-10-05T14:09:02.654Z,5.00
2022-10-05T14:19:08.644Z,5.40
2022-10-05T14:29:25.234Z,4.80
2022-10-05T14:39:35.215Z,5.30
2022-10-05T14:49:49.498Z,4.90
2022-10-05T15:00:17.686Z,4.60
2022-10-05T15:10:44.131Z,5.10
2022-10-05T15:21:11.158Z,5.30
2022-10-05T15:31:24.885Z,5.80
2022-10-05T15:41:36.608Z,6.10
2022-10-05T15:51:55.715Z,7.40
2022-10-05T16:02:05.008Z,8.10
2022-10-05T16:12:10.910Z,11.20
2022-10-05T16:22:19.926Z,6.80
2022-10-05T16:32:34.819Z,7.20
2022-10-05T16:43:00.595Z,7.30
2022-10-05T16:53:18.808Z,7.10
2022-10-05T17:03:43.638Z,6.80
2022-10-05T17:13:52.779Z,8.60
2022-10-05T17:24:17.086Z,10.50
2022-10-05T17:34:23.075Z,9.60
2022-10-05T17:44:29.344Z,12.30
2022-10-05T17:55:06.320Z,12.80
2022-10-05T18:05:13.604Z,9.90
2022-10-05T18:15:25.877Z,11.00
2022-10-05T18:25:44.855Z,13.40
2022-10-05T18:35:56.912Z,15.70
2022-10-05T18:46:15.325Z,13.90
2022-10-05T18:56:24.570Z,14.50
2022-10-05T19:06:33.692Z,12.90
2022-10-05T19:16:58.463Z,12.80
2022-10-05T19:27:16.537Z,12.20
2022-10-05T19:37:32.188Z,13.70
2022-10-05T19:47:51.554Z,14.90
2022-10-05T19:58:01.057Z,14.60
2022-10-05T20:08:07.469Z,15.40
2022-10-05T20:18:51.232Z,12.30
2022-10-05T20:28:57.287Z,10.10
2022-10-05T20:39:03.354Z,10.30
2022-10-05T20:49:11.766Z,9.30
2022-10-05T20:59:17.960Z,11.10
2022-10-05T21:09:24.114Z,11.00
2022-10-05T21:19:30.690Z,11.50
2022-10-05T21:29:37.701Z,11.20
2022-10-05T21:39:43.862Z,12.10
2022-10-05T21:49:49.941Z,15.10
2022-10-05T21:59:56.178Z,14.70
2022-10-05T22:10:03.073Z,15.20
2022-10-05T22:20:12.650Z,14.10
2022-10-05T22:30:18.844Z,13.50
2022-10-05T22:40:24.924Z,11.60
2022-10-05T22:50:31.312Z,11.60
2022-10-05T23:00:58.566Z,10.90
2022-10-05T23:11:09.488Z,11.70
2022-10-05T23:21:15.758Z,12.90
2022-10-05T23:31:23.892Z,9.70
2022-10-05T23:41:29.995Z,10.00
2022-10-05T23:51:36.250Z,9.70
